Time;durP1;ratioP1;P1;durP2;ratioP2;P2;SDS_P1;SDS_P2;PMS_P1;PMS_P2;Temp;Humidity;BMP_temperature;BMP_pressure;BME280_temperature;BME280_humidity;BME280_pressure;Samples;Min_cycle;Max_cycle;Signal;HPM_P1;HPM_P2
2022/05/25 00:00:55;;;;;;;7.20;6.50;;;;;;;;;;4994377;28;95851;-74
2022/05/25 00:03:21;;;;;;;8.05;7.50;;;;;;;;;;5006727;28;92669;-74
2022/05/25 00:05:47;;;;;;;9.13;7.85;;;;;;;;;;5015258;28;92855;-74
2022/05/25 00:08:14;;;;;;;7.65;6.95;;;;;;;;;;5014450;28;94269;-74
2022/05/25 00:10:41;;;;;;;9.18;7.30;;;;;;;;;;5015021;28;93079;-74
2022/05/25 00:13:08;;;;;;;7.82;7.10;;;;;;;;;;5015720;28;94091;-74
2022/05/25 00:15:35;;;;;;;8.27;7.68;;;;;;;;;;5017246;28;92328;-74
2022/05/25 00:18:02;;;;;;;8.00;7.35;;;;;;;;;;5015166;28;93769;-74
2022/05/25 00:20:28;;;;;;;10.95;7.80;;;;;;;;;;5013622;28;94278;-74
2022/05/25 00:22:55;;;;;;;8.68;7.97;;;;;;;;;;5012046;28;94931;-74
2022/05/25 00:25:23;;;;;;;8.80;8.10;;;;;;;;;;5014575;28;96269;-74
2022/05/25 00:27:50;;;;;;;9.00;8.13;;;;;;;;;;5014453;28;93259;-74
2022/05/25 00:30:17;;;;;;;8.82;7.97;;;;;;;;;;5022664;28;92423;-74
2022/05/25 00:32:44;;;;;;;8.73;8.02;;;;;;;;;;5034895;28;94068;-74
2022/05/25 00:35:12;;;;;;;11.52;7.57;;;;;;;;;;5034838;28;94134;-74
2022/05/25 00:37:39;;;;;;;9.13;8.05;;;;;;;;;;5036759;28;92449;-74
2022/05/25 00:40:06;;;;;;;8.85;8.15;;;;;;;;;;5034850;27;92225;-74
2022/05/25 00:42:35;;;;;;;10.98;8.52;;;;;;;;;;5034433;28;92844;-74
2022/05/25 00:45:02;;;;;;;15.02;8.32;;;;;;;;;;5034197;28;93994;-74
2022/05/25 00:47:29;;;;;;;9.30;8.43;;;;;;;;;;5031414;27;95949;-74
2022/05/25 00:49:56;;;;;;;8.90;8.10;;;;;;;;;;5030915;28;92497;-74
2022/05/25 00:52:23;;;;;;;9.88;9.07;;;;;;;;;;5013607;28;92976;-74
2022/05/25 00:54:58;;;;;;;8.82;8.18;;;;;;;;;;5014408;28;94172;-74
2022/05/25 00:57:30;;;;;;;9.30;8.52;;;;;;;;;;5013489;28;92507;-74
2022/05/25 01:00:06;;;;;;;9.75;8.82;;;;;;;;;;5017580;28;93027;-74
2022/05/25 01:02:35;;;;;;;11.23;9.38;;;;;;;;;;5014140;28;92832;-74
2022/05/25 01:05:03;;;;;;;8.95;8.23;;;;;;;;;;5014576;28;93849;-74
2022/05/25 01:08:02;;;;;;;16.85;9.48;;;;;;;;;;5013994;28;93152;-74
2022/05/25 01:10:34;;;;;;;9.93;9.15;;;;;;;;;;4991029;28;92626;-74
2022/05/25 01:13:12;;;;;;;10.43;9.43;;;;;;;;;;5012222;28;94850;-74
2022/05/25 01:15:45;;;;;;;10.98;9.20;;;;;;;;;;5013474;28;94012;-74
2022/05/25 01:18:16;;;;;;;9.90;8.98;;;;;;;;;;5014564;28;93799;-74
2022/05/25 01:20:44;;;;;;;12.95;9.25;;;;;;;;;;5020429;28;93885;-74
2022/05/25 01:23:11;;;;;;;12.80;9.27;;;;;;;;;;5034186;28;93293;-75
2022/05/25 01:25:56;;;;;;;10.52;9.45;;;;;;;;;;5033301;28;95454;-74
2022/05/25 01:28:38;;;;;;;12.95;9.63;;;;;;;;;;5033081;28;93205;-74
2022/05/25 01:31:07;;;;;;;11.13;10.05;;;;;;;;;;5034049;27;91767;-74
2022/05/25 01:33:38;;;;;;;12.70;10.25;;;;;;;;;;5031778;28;93338;-74
2022/05/25 01:36:23;;;;;;;11.77;10.52;;;;;;;;;;5033316;28;94081;-74
2022/05/25 01:38:50;;;;;;;11.68;10.40;;;;;;;;;;5030540;28;95345;-74
2022/05/25 01:41:20;;;;;;;11.93;10.50;;;;;;;;;;5022627;28;96468;-74
2022/05/25 01:43:58;;;;;;;11.50;10.32;;;;;;;;;;5016043;28;94150;-74
2022/05/25 01:46:26;;;;;;;13.63;11.23;;;;;;;;;;5011982;28;93082;-74
2022/05/25 01:48:54;;;;;;;15.55;11.05;;;;;;;;;;5012984;28;94378;-74
2022/05/25 01:51:50;;;;;;;11.93;10.57;;;;;;;;;;5012872;28;92432;-74
2022/05/25 01:54:18;;;;;;;12.93;11.63;;;;;;;;;;5003505;28;92988;-74
2022/05/25 01:56:46;;;;;;;12.48;11.27;;;;;;;;;;5010918;28;92540;-74
2022/05/25 01:59:14;;;;;;;13.10;10.93;;;;;;;;;;4993899;28;92520;-74
2022/05/25 02:04:40;;;;;;;12.95;11.65;;;;;;;;;;4991576;28;95773;-74
2022/05/25 02:07:25;;;;;;;13.82;11.70;;;;;;;;;;4996252;28;92461;-74
2022/05/25 02:10:11;;;;;;;14.90;12.02;;;;;;;;;;4992286;28;93805;-74
2022/05/25 02:12:51;;;;;;;12.68;11.35;;;;;;;;;;5024376;27;92558;-74
2022/05/25 02:15:36;;;;;;;13.90;11.95;;;;;;;;;;5032278;28;93658;-74
2022/05/25 02:18:17;;;;;;;15.18;12.13;;;;;;;;;;5032634;28;94431;-74
2022/05/25 02:20:50;;;;;;;14.70;12.68;;;;;;;;;;5031661;27;92577;-74
2022/05/25 02:23:21;;;;;;;16.90;13.23;;;;;;;;;;5032670;27;93452;-74
2022/05/25 02:25:58;;;;;;;14.70;13.15;;;;;;;;;;5032410;28;94281;-74
2022/05/25 02:28:26;;;;;;;20.55;14.25;;;;;;;;;;5031587;28;92455;-74
2022/05/25 02:30:55;;;;;;;16.30;12.85;;;;;;;;;;5033122;28;94915;-74
2022/05/25 02:33:24;;;;;;;17.30;13.30;;;;;;;;;;5032237;28;92521;-74
2022/05/25 02:35:51;;;;;;;14.68;12.20;;;;;;;;;;5031985;28;93900;-74
2022/05/25 02:38:18;;;;;;;18.98;12.82;;;;;;;;;;5032360;28;95670;-74
2022/05/25 02:40:44;;;;;;;13.70;12.13;;;;;;;;;;5027598;28;92419;-75
2022/05/25 02:43:10;;;;;;;17.15;12.50;;;;;;;;;;5012708;28;93933;-75
2022/05/25 02:45:38;;;;;;;15.13;12.65;;;;;;;;;;5018153;28;94146;-74
2022/05/25 02:48:04;;;;;;;17.20;13.20;;;;;;;;;;5036471;28;91720;-74
2022/05/25 02:50:31;;;;;;;18.83;12.98;;;;;;;;;;5034988;28;93276;-74
2022/05/25 02:52:57;;;;;;;15.32;13.35;;;;;;;;;;5038829;28;93141;-74
2022/05/25 02:55:24;;;;;;;14.57;13.00;;;;;;;;;;5020093;28;94833;-74
2022/05/25 02:57:50;;;;;;;17.67;13.02;;;;;;;;;;5014457;28;93845;-74
2022/05/25 03:00:17;;;;;;;17.40;14.18;;;;;;;;;;5015233;28;92535;-74
2022/05/25 03:02:43;;;;;;;19.80;14.45;;;;;;;;;;5015940;28;93991;-74
2022/05/25 03:05:10;;;;;;;16.30;13.52;;;;;;;;;;5014533;28;94405;-74
2022/05/25 03:07:37;;;;;;;17.08;14.73;;;;;;;;;;5015239;28;92938;-74
2022/05/25 03:10:03;;;;;;;18.08;13.50;;;;;;;;;;5015158;28;93978;-74
2022/05/25 03:12:30;;;;;;;19.90;14.18;;;;;;;;;;5014832;28;93539;-74
2022/05/25 03:14:56;;;;;;;17.40;14.63;;;;;;;;;;5018218;28;92388;-74
2022/05/25 03:17:23;;;;;;;18.83;14.50;;;;;;;;;;5014203;28;92498;-74
2022/05/25 03:19:51;;;;;;;18.80;13.43;;;;;;;;;;5017629;28;94944;-74
2022/05/25 03:22:19;;;;;;;16.67;14.00;;;;;;;;;;5023433;27;95374;-74
2022/05/25 03:24:46;;;;;;;17.95;14.52;;;;;;;;;;5014922;28;94553;-74
2022/05/25 03:27:13;;;;;;;23.33;16.10;;;;;;;;;;5014074;28;92470;-74
2022/05/25 03:29:39;;;;;;;17.75;14.73;;;;;;;;;;5014955;28;93995;-74
2022/05/25 03:32:06;;;;;;;20.45;15.55;;;;;;;;;;5014498;28;94128;-75
2022/05/25 03:34:33;;;;;;;20.50;16.40;;;;;;;;;;5017750;28;92487;-75
2022/05/25 03:36:59;;;;;;;21.45;15.38;;;;;;;;;;5015976;28;93638;-75
2022/05/25 03:39:26;;;;;;;19.73;14.00;;;;;;;;;;5014157;28;92537;-75
2022/05/25 03:42:04;;;;;;;24.42;14.32;;;;;;;;;;5014338;28;94029;-75
2022/05/25 03:44:30;;;;;;;16.65;14.90;;;;;;;;;;5012813;28;97385;-75
2022/05/25 03:46:57;;;;;;;18.02;13.82;;;;;;;;;;5014276;28;92709;-75
2022/05/25 03:49:23;;;;;;;18.80;14.13;;;;;;;;;;5014692;28;92819;-75
2022/05/25 03:51:49;;;;;;;21.38;15.70;;;;;;;;;;5014756;28;93719;-75
2022/05/25 03:54:16;;;;;;;21.98;14.90;;;;;;;;;;5014008;28;92944;-73
2022/05/25 03:56:42;;;;;;;19.23;15.25;;;;;;;;;;5017042;28;93900;-73
2022/05/25 03:59:09;;;;;;;15.13;13.68;;;;;;;;;;5000876;28;94357;-73
2022/05/25 04:01:36;;;;;;;19.88;14.15;;;;;;;;;;5003102;28;93960;-74
2022/05/25 04:04:03;;;;;;;17.52;14.07;;;;;;;;;;5014496;28;93162;-73
2022/05/25 04:06:30;;;;;;;22.67;15.35;;;;;;;;;;5014319;28;92552;-74
2022/05/25 04:09:00;;;;;;;21.70;13.85;;;;;;;;;;5012163;28;94896;-74
2022/05/25 04:11:26;;;;;;;18.35;14.38;;;;;;;;;;5023959;28;94177;-74
2022/05/25 04:13:52;;;;;;;16.33;14.20;;;;;;;;;;5034603;28;92426;-75
2022/05/25 04:16:19;;;;;;;14.95;13.35;;;;;;;;;;5033844;28;94413;-74
2022/05/25 04:18:45;;;;;;;15.93;13.40;;;;;;;;;;5037076;28;94777;-74
2022/05/25 04:21:15;;;;;;;19.38;13.88;;;;;;;;;;5032912;27;93021;-74
2022/05/25 04:23:41;;;;;;;14.70;13.18;;;;;;;;;;5033861;28;94454;-74
2022/05/25 04:26:07;;;;;;;18.50;13.82;;;;;;;;;;5031805;28;91733;-74
2022/05/25 04:28:34;;;;;;;16.50;12.55;;;;;;;;;;5024180;28;93313;-74
2022/05/25 04:31:01;;;;;;;16.52;13.70;;;;;;;;;;5033629;27;93300;-75
2022/05/25 04:33:29;;;;;;;23.27;12.57;;;;;;;;;;5032647;27;94810;-75
2022/05/25 04:35:56;;;;;;;16.00;12.88;;;;;;;;;;5033552;28;96769;-75
2022/05/25 04:38:22;;;;;;;19.00;11.70;;;;;;;;;;5033320;28;94164;-74
2022/05/25 04:40:49;;;;;;;16.20;11.77;;;;;;;;;;5037309;28;93759;-74
2022/05/25 04:43:17;;;;;;;19.08;11.57;;;;;;;;;;5033375;28;94226;-74
2022/05/25 04:45:44;;;;;;;15.07;10.63;;;;;;;;;;5033109;27;92930;-74
2022/05/25 04:48:12;;;;;;;22.42;11.25;;;;;;;;;;5034138;28;92942;-74
2022/05/25 04:50:40;;;;;;;15.40;11.60;;;;;;;;;;5033343;28;93629;-74
2022/05/25 04:53:08;;;;;;;15.70;11.52;;;;;;;;;;5034110;28;92473;-74
2022/05/25 04:58:20;;;;;;;19.27;11.48;;;;;;;;;;4991258;28;96893;-74
2022/05/25 05:00:47;;;;;;;12.55;11.20;;;;;;;;;;4993965;28;92500;-75
2022/05/25 05:03:13;;;;;;;15.20;10.88;;;;;;;;;;5014266;28;93984;-75
2022/05/25 05:05:40;;;;;;;13.88;10.77;;;;;;;;;;5012371;28;92440;-75
2022/05/25 05:08:07;;;;;;;18.73;11.18;;;;;;;;;;5013841;28;92875;-76
2022/05/25 05:10:34;;;;;;;20.92;11.52;;;;;;;;;;5012589;28;94296;-75
2022/05/25 05:13:04;;;;;;;13.85;11.23;;;;;;;;;;5013707;28;92448;-73
2022/05/25 05:15:38;;;;;;;8.48;6.00;;;;;;;;;;5013788;28;92792;-72
2022/05/25 05:18:05;;;;;;;11.93;8.13;;;;;;;;;;5013549;28;93861;-72
2022/05/25 05:20:49;;;;;;;13.65;10.57;;;;;;;;;;5013214;28;92592;-75
2022/05/25 05:23:16;;;;;;;14.57;9.82;;;;;;;;;;5011848;28;94857;-75
2022/05/25 05:25:42;;;;;;;15.57;9.77;;;;;;;;;;5016176;28;94607;-72
2022/05/25 05:28:10;;;;;;;13.75;10.63;;;;;;;;;;5013468;28;93280;-72
2022/05/25 05:30:43;;;;;;;23.00;11.40;;;;;;;;;;5012906;28;94186;-72
2022/05/25 05:33:09;;;;;;;18.00;10.63;;;;;;;;;;5012483;28;92907;-72
2022/05/25 05:35:35;;;;;;;17.35;11.40;;;;;;;;;;5015992;28;94005;-72
2022/05/25 05:38:02;;;;;;;12.55;9.90;;;;;;;;;;5032516;28;93283;-72
2022/05/25 05:40:29;;;;;;;12.85;11.45;;;;;;;;;;5032561;28;91738;-74
2022/05/25 05:42:56;;;;;;;14.25;11.13;;;;;;;;;;5027529;27;92766;-74
2022/05/25 05:45:27;;;;;;;13.18;10.82;;;;;;;;;;5005940;28;94426;-76
2022/05/25 05:48:01;;;;;;;11.70;10.25;;;;;;;;;;5003137;28;94910;-73
2022/05/25 05:50:29;;;;;;;14.95;10.80;;;;;;;;;;5010009;28;94223;-72
2022/05/25 05:52:56;;;;;;;20.08;10.60;;;;;;;;;;5010600;28;93303;-72
2022/05/25 05:55:23;;;;;;;18.42;11.32;;;;;;;;;;5006899;28;92929;-73
2022/05/25 05:57:50;;;;;;;17.38;10.55;;;;;;;;;;5014225;28;94304;-73
2022/05/25 06:00:17;;;;;;;9.80;8.90;;;;;;;;;;5001566;28;92907;-73
2022/05/25 06:02:43;;;;;;;15.90;9.82;;;;;;;;;;5002918;28;94039;-73
2022/05/25 06:05:12;;;;;;;12.45;9.07;;;;;;;;;;5014121;28;93396;-75
2022/05/25 06:07:39;;;;;;;9.93;7.75;;;;;;;;;;5015418;28;92537;-74
2022/05/25 06:10:06;;;;;;;11.48;7.55;;;;;;;;;;5013850;28;94266;-74
2022/05/25 06:12:32;;;;;;;12.75;6.97;;;;;;;;;;5011749;28;94867;-74
2022/05/25 06:19:25;;;;;;;13.60;6.53;;;;;;;;;;5000126;28;97705;-74
2022/05/25 06:20:31;;;;;;;10.07;6.63;;;;;;;;;;5016448;28;92426;-73
2022/05/25 06:22:57;;;;;;;13.48;7.07;;;;;;;;;;5011668;28;92852;-74
2022/05/25 06:25:23;;;;;;;14.25;6.63;;;;;;;;;;5008066;28;92413;-74
2022/05/25 06:27:50;;;;;;;9.52;6.40;;;;;;;;;;5013198;28;93992;-74
2022/05/25 06:30:16;;;;;;;10.70;6.70;;;;;;;;;;5008978;28;94012;-74
2022/05/25 06:32:43;;;;;;;7.57;6.15;;;;;;;;;;5016097;28;92553;-74
2022/05/25 06:35:10;;;;;;;11.45;6.43;;;;;;;;;;5013392;28;93975;-74
2022/05/25 06:37:36;;;;;;;12.73;6.32;;;;;;;;;;5006867;28;97286;-75
2022/05/25 06:40:03;;;;;;;10.55;5.95;;;;;;;;;;5000214;28;92454;-74
2022/05/25 06:42:29;;;;;;;11.02;5.75;;;;;;;;;;4994829;28;94051;-74
2022/05/25 06:44:56;;;;;;;13.43;5.68;;;;;;;;;;4997803;28;93952;-74
2022/05/25 06:47:22;;;;;;;9.65;5.93;;;;;;;;;;5011654;28;92541;-74
2022/05/25 06:49:52;;;;;;;11.77;6.05;;;;;;;;;;5007806;28;92881;-74
2022/05/25 06:52:19;;;;;;;9.52;5.65;;;;;;;;;;5011318;28;94422;-75
2022/05/25 06:54:45;;;;;;;11.75;5.82;;;;;;;;;;5018811;28;93961;-74
2022/05/25 06:57:12;;;;;;;9.13;6.28;;;;;;;;;;4997800;28;94348;-74
2022/05/25 06:59:38;;;;;;;8.65;5.85;;;;;;;;;;5001765;28;92428;-74
2022/05/25 07:02:04;;;;;;;14.20;6.07;;;;;;;;;;5029721;28;95353;-74
2022/05/25 07:04:31;;;;;;;9.57;6.65;;;;;;;;;;5015983;27;94503;-74
2022/05/25 07:07:02;;;;;;;8.77;6.67;;;;;;;;;;5016144;28;92521;-74
2022/05/25 07:09:30;;;;;;;10.15;6.85;;;;;;;;;;5009381;28;94103;-74
2022/05/25 07:11:58;;;;;;;15.50;6.97;;;;;;;;;;5008895;28;94194;-73
2022/05/25 07:14:25;;;;;;;13.43;6.68;;;;;;;;;;4999261;28;92684;-73
2022/05/25 07:16:51;;;;;;;14.30;8.15;;;;;;;;;;4996869;28;93061;-72
2022/05/25 07:19:18;;;;;;;13.20;7.95;;;;;;;;;;5000237;28;93282;-71
2022/05/25 07:21:44;;;;;;;12.10;8.15;;;;;;;;;;5002285;28;93346;-71
2022/05/25 07:24:10;;;;;;;11.35;8.07;;;;;;;;;;5025657;28;94305;-71
2022/05/25 07:26:37;;;;;;;9.30;8.07;;;;;;;;;;5010603;27;94881;-71
2022/05/25 07:29:03;;;;;;;13.60;7.72;;;;;;;;;;5013154;28;95863;-74
2022/05/25 07:31:30;;;;;;;11.55;8.18;;;;;;;;;;5009071;28;94199;-73
2022/05/25 07:34:19;;;;;;;14.85;8.40;;;;;;;;;;5001993;28;94111;-72
2022/05/25 07:36:51;;;;;;;17.27;7.28;;;;;;;;;;5003643;28;94573;-73
2022/05/25 07:39:18;;;;;;;10.43;7.57;;;;;;;;;;4995274;28;92506;-71
2022/05/25 07:41:49;;;;;;;9.07;6.18;;;;;;;;;;5002513;28;94466;-72
2022/05/25 07:44:18;;;;;;;11.13;7.88;;;;;;;;;;5012799;28;93387;-72
2022/05/25 07:46:44;;;;;;;10.98;7.35;;;;;;;;;;5014513;28;92515;-71
2022/05/25 07:49:11;;;;;;;10.23;7.53;;;;;;;;;;5015328;28;93961;-72
2022/05/25 07:51:38;;;;;;;12.30;8.20;;;;;;;;;;5013467;28;96779;-71
2022/05/25 07:54:05;;;;;;;16.50;8.38;;;;;;;;;;5014771;28;92687;-72
2022/05/25 07:56:34;;;;;;;13.85;7.55;;;;;;;;;;5018115;28;93986;-71
2022/05/25 07:59:14;;;;;;;7.85;7.00;;;;;;;;;;5015692;28;92523;-73
2022/05/25 08:07:22;;;;;;;12.57;7.30;;;;;;;;;;5011813;28;92472;-71
2022/05/25 08:09:51;;;;;;;18.27;7.80;;;;;;;;;;5015802;28;94191;-71
2022/05/25 08:12:19;;;;;;;7.07;6.38;;;;;;;;;;5014463;28;94432;-71
2022/05/25 08:14:46;;;;;;;10.27;7.05;;;;;;;;;;4993967;28;93041;-71
2022/05/25 08:17:12;;;;;;;9.27;6.63;;;;;;;;;;4993719;28;94938;-71
2022/05/25 08:19:38;;;;;;;9.25;6.65;;;;;;;;;;4997885;28;93486;-71
2022/05/25 08:22:06;;;;;;;8.50;6.38;;;;;;;;;;4994379;28;93839;-70
2022/05/25 08:24:32;;;;;;;8.60;6.32;;;;;;;;;;4994692;28;94197;-70
2022/05/25 08:27:03;;;;;;;11.20;7.47;;;;;;;;;;4995697;28;92491;-70
2022/05/25 08:29:29;;;;;;;9.85;6.72;;;;;;;;;;5011357;28;94014;-70
2022/05/25 08:31:57;;;;;;;8.00;6.78;;;;;;;;;;5014786;28;94404;-70
2022/05/25 08:34:25;;;;;;;9.38;6.78;;;;;;;;;;5014065;28;92405;-71
2022/05/25 08:36:51;;;;;;;9.23;7.47;;;;;;;;;;5014179;28;92449;-71
2022/05/25 08:39:18;;;;;;;14.48;8.10;;;;;;;;;;5014781;28;93148;-71
2022/05/25 08:41:47;;;;;;;13.43;7.95;;;;;;;;;;5014556;28;94854;-71
2022/05/25 08:44:14;;;;;;;13.10;8.98;;;;;;;;;;5013776;28;94836;-71
2022/05/25 08:46:41;;;;;;;10.57;7.72;;;;;;;;;;5014316;28;92533;-71
2022/05/25 08:49:10;;;;;;;13.85;7.68;;;;;;;;;;5013441;28;93136;-71
2022/05/25 08:51:42;;;;;;;10.82;7.90;;;;;;;;;;5010939;28;94157;-71
2022/05/25 08:54:09;;;;;;;11.13;8.10;;;;;;;;;;5014724;28;92417;-71
2022/05/25 08:56:41;;;;;;;13.05;7.55;;;;;;;;;;5013155;28;93037;-71
2022/05/25 08:59:12;;;;;;;11.88;8.68;;;;;;;;;;5014555;28;91702;-71
2022/05/25 09:01:43;;;;;;;14.85;8.35;;;;;;;;;;5013983;28;92374;-71
2022/05/25 09:04:33;;;;;;;10.68;8.02;;;;;;;;;;5016686;28;93750;-71
2022/05/25 09:07:02;;;;;;;11.80;7.82;;;;;;;;;;4992617;28;95029;-71
2022/05/25 09:09:39;;;;;;;11.82;8.20;;;;;;;;;;5010661;28;96386;-71
2022/05/25 09:12:11;;;;;;;11.23;7.35;;;;;;;;;;4994178;28;96457;-71
2022/05/25 09:14:42;;;;;;;10.15;7.95;;;;;;;;;;4994201;28;92471;-71
2022/05/25 09:17:13;;;;;;;11.60;7.30;;;;;;;;;;4993559;28;93978;-71
2022/05/25 09:19:42;;;;;;;11.40;7.07;;;;;;;;;;4994028;28;93108;-71
2022/05/25 09:22:12;;;;;;;8.88;5.18;;;;;;;;;;5005154;28;92591;-71
2022/05/25 09:24:38;;;;;;;13.07;5.68;;;;;;;;;;5013507;28;93684;-71
2022/05/25 09:27:07;;;;;;;9.98;4.97;;;;;;;;;;5017174;28;94681;-71
2022/05/25 09:29:33;;;;;;;5.55;4.43;;;;;;;;;;5013817;28;93992;-71
2022/05/25 09:32:05;;;;;;;7.50;4.82;;;;;;;;;;5011319;28;96712;-71
2022/05/25 09:34:52;;;;;;;6.13;4.20;;;;;;;;;;5011300;28;92410;-71
2022/05/25 09:37:21;;;;;;;6.75;4.20;;;;;;;;;;4993126;28;93783;-71
2022/05/25 09:39:51;;;;;;;5.90;3.92;;;;;;;;;;4993164;28;94220;-71
2022/05/25 09:42:19;;;;;;;6.40;3.75;;;;;;;;;;4993814;28;92493;-71
2022/05/25 09:44:49;;;;;;;10.70;4.50;;;;;;;;;;4992562;28;94224;-71
2022/05/25 09:47:19;;;;;;;7.60;4.18;;;;;;;;;;4993666;28;94185;-71
2022/05/25 09:49:47;;;;;;;4.90;3.90;;;;;;;;;;5028259;28;91895;-71
2022/05/25 09:52:27;;;;;;;4.00;3.22;;;;;;;;;;4992416;28;94219;-71
2022/05/25 09:55:03;;;;;;;13.45;3.83;;;;;;;;;;4992851;28;92552;-70
2022/05/25 09:57:36;;;;;;;6.90;4.13;;;;;;;;;;4991897;28;94872;-70
2022/05/25 10:00:14;;;;;;;6.82;3.40;;;;;;;;;;4992662;28;94097;-72
2022/05/25 10:02:50;;;;;;;3.72;3.15;;;;;;;;;;4993473;28;94251;-72
2022/05/25 10:05:16;;;;;;;11.25;3.50;;;;;;;;;;5003522;28;93057;-72
2022/05/25 10:07:51;;;;;;;6.90;3.97;;;;;;;;;;5012108;28;93274;-72
2022/05/25 10:10:23;;;;;;;4.63;3.63;;;;;;;;;;5016129;28;92438;-72
2022/05/25 10:12:57;;;;;;;3.75;2.83;;;;;;;;;;5012439;28;94097;-72
2022/05/25 10:15:36;;;;;;;16.10;3.00;;;;;;;;;;5013311;28;91642;-72
2022/05/25 10:18:04;;;;;;;4.43;2.60;;;;;;;;;;5013477;28;93354;-71
2022/05/25 10:20:51;;;;;;;7.25;2.78;;;;;;;;;;5011784;28;93153;-71
2022/05/25 10:23:25;;;;;;;7.32;2.30;;;;;;;;;;5011758;28;94882;-72
2022/05/25 10:25:56;;;;;;;3.35;1.80;;;;;;;;;;5013238;28;95331;-72
2022/05/25 10:28:32;;;;;;;6.18;1.80;;;;;;;;;;5012064;28;94023;-72
2022/05/25 10:37:01;;;;;;;4.43;1.27;;;;;;;;;;5012748;28;93008;-72
2022/05/25 10:39:28;;;;;;;4.28;1.17;;;;;;;;;;5012691;28;93960;-72
2022/05/25 10:41:57;;;;;;;1.73;1.00;;;;;;;;;;5012814;28;93527;-72
2022/05/25 10:44:24;;;;;;;4.88;1.40;;;;;;;;;;5012511;28;92493;-72
2022/05/25 10:46:57;;;;;;;4.28;1.30;;;;;;;;;;5012977;28;94192;-72
2022/05/25 10:49:26;;;;;;;7.57;1.33;;;;;;;;;;5009691;28;96839;-72
2022/05/25 10:51:56;;;;;;;1.77;0.88;;;;;;;;;;5013045;28;92411;-72
2022/05/25 10:54:44;;;;;;;2.35;0.90;;;;;;;;;;5012584;28;94070;-72
2022/05/25 10:57:34;;;;;;;5.25;1.38;;;;;;;;;;5014873;28;93266;-72
2022/05/25 11:00:08;;;;;;;2.88;1.30;;;;;;;;;;5012978;28;92851;-72
2022/05/25 11:02:44;;;;;;;4.43;0.90;;;;;;;;;;5011772;28;92568;-72
2022/05/25 11:05:29;;;;;;;7.63;1.10;;;;;;;;;;5012117;28;92450;-72
2022/05/25 11:08:17;;;;;;;1.55;1.00;;;;;;;;;;5016761;28;93269;-72
2022/05/25 11:10:43;;;;;;;7.20;1.20;;;;;;;;;;5014466;28;94197;-72
2022/05/25 11:13:19;;;;;;;4.10;1.13;;;;;;;;;;5015916;28;92606;-72
2022/05/25 11:15:53;;;;;;;3.03;1.20;;;;;;;;;;5014569;28;94847;-72
2022/05/25 11:18:39;;;;;;;9.75;1.00;;;;;;;;;;5015392;28;94390;-72
2022/05/25 11:21:27;;;;;;;1.50;0.98;;;;;;;;;;5014425;28;92488;-72
2022/05/25 11:24:05;;;;;;;5.50;1.45;;;;;;;;;;4995103;28;93093;-72
2022/05/25 11:26:43;;;;;;;2.10;1.10;;;;;;;;;;4995810;28;92489;-70
2022/05/25 11:29:24;;;;;;;5.80;1.33;;;;;;;;;;4996205;28;94816;-69
2022/05/25 11:32:03;;;;;;;2.53;1.02;;;;;;;;;;4995051;28;93690;-70
2022/05/25 11:34:45;;;;;;;3.17;1.30;;;;;;;;;;5000886;28;91741;-71
2022/05/25 11:37:25;;;;;;;10.27;1.88;;;;;;;;;;5014767;28;93167;-71
2022/05/25 11:39:56;;;;;;;6.20;1.30;;;;;;;;;;5015856;28;94138;-71
2022/05/25 11:42:41;;;;;;;5.22;1.40;;;;;;;;;;5014023;28;94919;-71
2022/05/25 11:45:34;;;;;;;4.97;1.20;;;;;;;;;;5017744;28;95450;-71
2022/05/25 11:48:11;;;;;;;3.13;1.33;;;;;;;;;;5016368;28;92465;-71
2022/05/25 11:51:03;;;;;;;3.10;1.10;;;;;;;;;;5015458;28;93294;-74
2022/05/25 11:53:49;;;;;;;6.35;1.42;;;;;;;;;;5012887;28;94057;-72
2022/05/25 11:56:18;;;;;;;6.10;1.38;;;;;;;;;;5014258;28;92512;-72
2022/05/25 11:59:06;;;;;;;3.35;1.33;;;;;;;;;;5014459;28;93907;-72
2022/05/25 12:01:44;;;;;;;5.78;1.30;;;;;;;;;;5015875;28;93499;-71
2022/05/25 12:04:29;;;;;;;8.68;1.20;;;;;;;;;;5015467;28;93967;-71
2022/05/25 12:07:18;;;;;;;2.47;1.27;;;;;;;;;;5016783;28;94578;-71
2022/05/25 12:10:08;;;;;;;5.47;1.08;;;;;;;;;;5014308;28;94904;-71
2022/05/25 12:12:40;;;;;;;3.92;1.10;;;;;;;;;;5014423;28;96000;-72
2022/05/25 12:15:24;;;;;;;4.28;0.77;;;;;;;;;;5014290;28;94021;-71
2022/05/25 12:17:52;;;;;;;3.63;1.08;;;;;;;;;;5015525;28;92457;-71
2022/05/25 12:20:26;;;;;;;7.05;0.90;;;;;;;;;;5014264;28;93593;-70
2022/05/25 12:22:54;;;;;;;9.73;1.20;;;;;;;;;;5015029;28;93215;-70
2022/05/25 12:25:21;;;;;;;6.20;1.20;;;;;;;;;;5014620;28;92653;-71
2022/05/25 12:27:50;;;;;;;3.00;0.85;;;;;;;;;;5014526;28;94557;-70
2022/05/25 12:30:28;;;;;;;3.42;0.90;;;;;;;;;;5017706;28;94036;-71
2022/05/25 12:32:55;;;;;;;5.30;1.02;;;;;;;;;;4995000;28;92946;-71
2022/05/25 12:35:22;;;;;;;6.35;1.55;;;;;;;;;;4991481;28;95741;-71
2022/05/25 12:37:51;;;;;;;5.85;1.20;;;;;;;;;;4994158;28;92469;-71
2022/05/25 12:40:27;;;;;;;4.50;1.00;;;;;;;;;;4994801;28;92641;-71
2022/05/25 12:42:53;;;;;;;2.08;1.13;;;;;;;;;;5012414;28;93839;-71
2022/05/25 12:48:33;;;;;;;4.70;1.20;;;;;;;;;;4993840;28;93837;-71
2022/05/25 12:51:11;;;;;;;3.95;1.77;;;;;;;;;;4994327;28;94243;-70
2022/05/25 12:53:38;;;;;;;1.55;1.10;;;;;;;;;;4997525;28;91634;-71
2022/05/25 12:56:25;;;;;;;6.82;1.10;;;;;;;;;;4993865;28;93400;-71
2022/05/25 12:58:54;;;;;;;2.78;1.40;;;;;;;;;;4994266;28;94981;-71
2022/05/25 13:01:23;;;;;;;6.65;1.63;;;;;;;;;;4993066;28;94892;-71
2022/05/25 13:03:49;;;;;;;3.38;1.58;;;;;;;;;;4993469;28;94137;-71
2022/05/25 13:06:21;;;;;;;5.32;1.50;;;;;;;;;;4994499;28;92485;-71
2022/05/25 13:08:50;;;;;;;4.70;1.02;;;;;;;;;;4994123;28;93156;-70
2022/05/25 13:11:32;;;;;;;4.20;1.00;;;;;;;;;;4994157;28;93460;-71
2022/05/25 13:14:00;;;;;;;4.00;1.40;;;;;;;;;;4994314;28;92480;-71
2022/05/25 13:16:41;;;;;;;3.45;1.10;;;;;;;;;;4996241;28;93913;-71
2022/05/25 13:19:18;;;;;;;4.43;1.63;;;;;;;;;;4994752;28;91866;-71
2022/05/25 13:22:06;;;;;;;2.75;1.40;;;;;;;;;;5000529;28;93257;-71
2022/05/25 13:24:51;;;;;;;8.25;1.60;;;;;;;;;;5012844;28;93510;-70
2022/05/25 13:27:23;;;;;;;2.67;1.27;;;;;;;;;;5012315;28;94845;-71
2022/05/25 13:30:09;;;;;;;6.72;1.17;;;;;;;;;;5013244;28;96309;-71
2022/05/25 13:32:57;;;;;;;5.63;1.70;;;;;;;;;;5012657;28;94375;-71
2022/05/25 13:35:41;;;;;;;6.65;1.85;;;;;;;;;;4995766;28;94203;-70
2022/05/25 13:38:21;;;;;;;6.45;1.65;;;;;;;;;;4991617;28;94146;-71
2022/05/25 13:40:51;;;;;;;9.15;1.77;;;;;;;;;;4997002;28;94571;-70
2022/05/25 13:43:23;;;;;;;5.22;1.63;;;;;;;;;;4993836;28;93930;-70
2022/05/25 13:45:51;;;;;;;6.78;1.75;;;;;;;;;;4993492;28;93440;-71
2022/05/25 13:48:24;;;;;;;6.78;2.03;;;;;;;;;;4993665;28;92486;-71
2022/05/25 13:50:54;;;;;;;5.75;1.33;;;;;;;;;;4993116;28;94087;-71
2022/05/25 13:53:32;;;;;;;2.80;1.65;;;;;;;;;;4991852;28;97125;-71
2022/05/25 13:56:01;;;;;;;10.05;1.85;;;;;;;;;;4993817;28;92571;-71
2022/05/25 13:58:27;;;;;;;8.80;3.17;;;;;;;;;;4992587;28;93976;-72
2022/05/25 14:00:53;;;;;;;4.13;1.85;;;;;;;;;;4993632;28;93515;-72
2022/05/25 14:03:29;;;;;;;10.35;3.03;;;;;;;;;;4996389;28;92546;-72
2022/05/25 14:05:59;;;;;;;13.60;2.38;;;;;;;;;;5005944;28;95981;-71
2022/05/25 14:11:16;;;;;;;5.65;1.75;;;;;;;;;;5014100;28;95284;-71
2022/05/25 14:13:42;;;;;;;7.70;2.20;;;;;;;;;;5012344;28;94118;-70
2022/05/25 14:16:11;;;;;;;5.25;1.95;;;;;;;;;;5013273;28;92875;-71
2022/05/25 14:18:47;;;;;;;6.72;1.98;;;;;;;;;;5008204;28;95240;-72
2022/05/25 14:21:25;;;;;;;6.90;1.65;;;;;;;;;;5009581;28;94221;-71
2022/05/25 14:23:52;;;;;;;4.20;1.70;;;;;;;;;;5011544;28;92624;-71
2022/05/25 14:26:26;;;;;;;3.78;1.83;;;;;;;;;;4992367;28;94137;-71
2022/05/25 14:28:53;;;;;;;9.90;1.92;;;;;;;;;;5000142;28;92538;-71
2022/05/25 14:31:21;;;;;;;11.50;2.20;;;;;;;;;;5004603;28;94671;-71
2022/05/25 14:33:48;;;;;;;14.40;2.03;;;;;;;;;;5000131;28;94564;-71
2022/05/25 14:36:18;;;;;;;8.73;1.70;;;;;;;;;;5000029;28;94038;-71
2022/05/25 14:38:44;;;;;;;8.82;1.98;;;;;;;;;;4992512;28;93312;-71
2022/05/25 14:41:28;;;;;;;;;;;;;;;;;;4997026;28;94092;-70
2022/05/25 14:43:56;;;;;;;8.05;1.90;;;;;;;;;;5002323;28;117383;-72
2022/05/25 14:46:27;;;;;;;5.75;1.98;;;;;;;;;;4998292;28;95387;-71
2022/05/25 14:48:55;;;;;;;7.65;2.05;;;;;;;;;;4995294;28;93075;-71
2022/05/25 14:51:26;;;;;;;4.93;1.80;;;;;;;;;;5012861;28;94197;-71
2022/05/25 14:54:01;;;;;;;9.98;2.13;;;;;;;;;;5010295;28;92510;-71
2022/05/25 14:56:30;;;;;;;10.57;1.63;;;;;;;;;;4992788;28;92571;-71
2022/05/25 14:58:59;;;;;;;7.90;1.83;;;;;;;;;;4993800;28;94049;-71
2022/05/25 15:01:30;;;;;;;7.90;1.95;;;;;;;;;;4996391;28;92364;-72
2022/05/25 15:04:02;;;;;;;7.30;1.80;;;;;;;;;;4993269;28;93799;-71
2022/05/25 15:06:41;;;;;;;8.80;2.13;;;;;;;;;;4996297;28;95721;-71
2022/05/25 15:09:11;;;;;;;8.27;1.88;;;;;;;;;;5003255;28;95820;-71
2022/05/25 15:11:42;;;;;;;6.13;2.03;;;;;;;;;;5010822;28;95273;-71
2022/05/25 15:20:11;;;;;;;2.60;1.20;;;;;;;;;;5000563;28;93176;-71
2022/05/25 15:22:39;;;;;;;5.15;1.70;;;;;;;;;;4992505;28;94792;-71
2022/05/25 15:25:37;;;;;;;7.63;1.40;;;;;;;;;;5012294;28;92555;-71
2022/05/25 15:28:09;;;;;;;7.15;1.63;;;;;;;;;;4995806;28;93058;-72